sensor_id;sensor_type;location;lat;lon;timestamp;temperature;humidity
21950;DHT22;11139;51.284;7.226;2024-03-25T00:02:16;6.20;99.90
21950;DHT22;11139;51.284;7.226;2024-03-25T00:04:42;6.20;99.90
21950;DHT22;11139;51.284;7.226;2024-03-25T00:07:07;6.20;99.90
21950;DHT22;11139;51.284;7.226;2024-03-25T00:09:33;6.10;99.90
21950;DHT22;11139;51.284;7.226;2024-03-25T00:11:58;6.10;99.90
21950;DHT22;11139;51.284;7.226;2024-03-25T00:14:24;6.10;99.90
21950;DHT22;11139;51.284;7.226;2024-03-25T00:16:50;6.10;99.90
21950;DHT22;11139;51.284;7.226;2024-03-25T00:19:15;6.10;99.90
21950;DHT22;11139;51.284;7.226;2024-03-25T00:21:41;6.10;99.90
21950;DHT22;11139;51.284;7.226;2024-03-25T00:24:07;6.10;99.90
21950;DHT22;11139;51.284;7.226;2024-03-25T00:26:33;6.10;99.90
21950;DHT22;11139;51.284;7.226;2024-03-25T00:28:59;6.10;99.90
21950;DHT22;11139;51.284;7.226;2024-03-25T00:31:26;6.10;99.90
21950;DHT22;11139;51.284;7.226;2024-03-25T00:33:51;6.10;99.90
21950;DHT22;11139;51.284;7.226;2024-03-25T00:36:17;6.10;99.90
21950;DHT22;11139;51.284;7.226;2024-03-25T00:38:43;6.10;99.90
21950;DHT22;11139;51.284;7.226;2024-03-25T00:41:09;6.10;99.90
21950;DHT22;11139;51.284;7.226;2024-03-25T00:43:34;6.10;99.90
21950;DHT22;11139;51.284;7.226;2024-03-25T00:46:00;6.10;99.90
21950;DHT22;11139;51.284;7.226;2024-03-25T00:48:26;6.10;99.90
21950;DHT22;11139;51.284;7.226;2024-03-25T00:50:52;6.10;99.90
21950;DHT22;11139;51.284;7.226;2024-03-25T00:53:17;6.10;99.90
21950;DHT22;11139;51.284;7.226;2024-03-25T00:55:44;6.10;99.90
21950;DHT22;11139;51.284;7.226;2024-03-25T00:58:09;6.10;99.90
21950;DHT22;11139;51.284;7.226;2024-03-25T01:00:35;6.10;99.90
21950;DHT22;11139;51.284;7.226;2024-03-25T01:03:01;6.10;99.90
21950;DHT22;11139;51.284;7.226;2024-03-25T01:05:26;6.10;99.90
21950;DHT22;11139;51.284;7.226;2024-03-25T01:07:53;6.10;99.90
21950;DHT22;11139;51.284;7.226;2024-03-25T01:10:18;6.10;99.90
21950;DHT22;11139;51.284;7.226;2024-03-25T01:12:44;6.10;99.90
21950;DHT22;11139;51.284;7.226;2024-03-25T01:15:11;6.10;99.90
21950;DHT22;11139;51.284;7.226;2024-03-25T01:17:37;6.10;99.90
21950;DHT22;11139;51.284;7.226;2024-03-25T01:20:03;6.10;99.90
21950;DHT22;11139;51.284;7.226;2024-03-25T01:22:32;6.00;99.90
21950;DHT22;11139;51.284;7.226;2024-03-25T01:24:57;6.10;99.90
21950;DHT22;11139;51.284;7.226;2024-03-25T01:27:23;6.10;99.90
21950;DHT22;11139;51.284;7.226;2024-03-25T01:29:49;6.00;99.90
21950;DHT22;11139;51.284;7.226;2024-03-25T01:32:14;6.00;99.90
21950;DHT22;11139;51.284;7.226;2024-03-25T01:34:40;6.10;99.90
21950;DHT22;11139;51.284;7.226;2024-03-25T01:37:06;6.00;99.90
21950;DHT22;11139;51.284;7.226;2024-03-25T01:39:31;6.10;99.90
21950;DHT22;11139;51.284;7.226;2024-03-25T01:41:57;6.00;99.90
21950;DHT22;11139;51.284;7.226;2024-03-25T01:44:23;6.00;99.90
21950;DHT22;11139;51.284;7.226;2024-03-25T01:46:49;6.00;99.90
21950;DHT22;11139;51.284;7.226;2024-03-25T01:49:15;6.00;99.90
21950;DHT22;11139;51.284;7.226;2024-03-25T01:51:41;6.00;99.90
21950;DHT22;11139;51.284;7.226;2024-03-25T01:54:08;6.00;99.90
21950;DHT22;11139;51.284;7.226;2024-03-25T01:56:35;6.10;99.90
21950;DHT22;11139;51.284;7.226;2024-03-25T01:59:02;6.00;99.90
21950;DHT22;11139;51.284;7.226;2024-03-25T02:01:29;6.00;99.90
21950;DHT22;11139;51.284;7.226;2024-03-25T02:03:55;6.00;99.90
21950;DHT22;11139;51.284;7.226;2024-03-25T02:06:21;6.00;99.90
21950;DHT22;11139;51.284;7.226;2024-03-25T02:08:48;6.00;99.90
21950;DHT22;11139;51.284;7.226;2024-03-25T02:11:14;6.00;99.90
21950;DHT22;11139;51.284;7.226;2024-03-25T02:13:40;6.00;99.90
21950;DHT22;11139;51.284;7.226;2024-03-25T02:16:07;6.00;99.90
21950;DHT22;11139;51.284;7.226;2024-03-25T02:18:33;6.00;99.90
21950;DHT22;11139;51.284;7.226;2024-03-25T02:20:59;6.00;99.90
21950;DHT22;11139;51.284;7.226;2024-03-25T02:23:25;6.00;99.90
21950;DHT22;11139;51.284;7.226;2024-03-25T02:25:54;6.00;99.90
21950;DHT22;11139;51.284;7.226;2024-03-25T02:28:20;6.00;99.90
21950;DHT22;11139;51.284;7.226;2024-03-25T02:30:46;6.00;99.90
21950;DHT22;11139;51.284;7.226;2024-03-25T02:33:12;6.00;99.90
21950;DHT22;11139;51.284;7.226;2024-03-25T02:35:40;6.00;99.90
21950;DHT22;11139;51.284;7.226;2024-03-25T02:38:08;6.00;99.90
21950;DHT22;11139;51.284;7.226;2024-03-25T02:40:34;6.00;99.90
21950;DHT22;11139;51.284;7.226;2024-03-25T02:43:00;6.00;99.90
21950;DHT22;11139;51.284;7.226;2024-03-25T02:45:26;6.00;99.90
21950;DHT22;11139;51.284;7.226;2024-03-25T02:47:52;6.00;99.90
21950;DHT22;11139;51.284;7.226;2024-03-25T02:50:18;6.00;99.90
21950;DHT22;11139;51.284;7.226;2024-03-25T02:52:43;6.00;99.90
21950;DHT22;11139;51.284;7.226;2024-03-25T02:55:09;6.00;99.90
21950;DHT22;11139;51.284;7.226;2024-03-25T02:57:35;6.00;99.90
21950;DHT22;11139;51.284;7.226;2024-03-25T03:00:00;6.00;99.90
21950;DHT22;11139;51.284;7.226;2024-03-25T03:02:26;6.00;99.90
21950;DHT22;11139;51.284;7.226;2024-03-25T03:04:51;6.00;99.90
21950;DHT22;11139;51.284;7.226;2024-03-25T03:07:17;6.00;99.90
21950;DHT22;11139;51.284;7.226;2024-03-25T03:09:43;6.00;99.90
21950;DHT22;11139;51.284;7.226;2024-03-25T03:12:08;6.00;99.90
21950;DHT22;11139;51.284;7.226;2024-03-25T03:14:34;6.00;99.90
21950;DHT22;11139;51.284;7.226;2024-03-25T03:17:00;6.00;99.90
21950;DHT22;11139;51.284;7.226;2024-03-25T03:19:30;6.00;99.90
21950;DHT22;11139;51.284;7.226;2024-03-25T03:21:56;6.00;99.90
21950;DHT22;11139;51.284;7.226;2024-03-25T03:24:22;6.00;99.90
21950;DHT22;11139;51.284;7.226;2024-03-25T03:26:48;6.00;99.90
21950;DHT22;11139;51.284;7.226;2024-03-25T03:29:14;6.00;99.90
21950;DHT22;11139;51.284;7.226;2024-03-25T03:31:39;6.00;99.90
21950;DHT22;11139;51.284;7.226;2024-03-25T03:34:05;6.00;99.90
21950;DHT22;11139;51.284;7.226;2024-03-25T03:36:31;6.00;99.90
21950;DHT22;11139;51.284;7.226;2024-03-25T03:38:56;6.00;99.90
21950;DHT22;11139;51.284;7.226;2024-03-25T03:41:22;5.90;99.90
21950;DHT22;11139;51.284;7.226;2024-03-25T03:43:48;5.90;99.90
21950;DHT22;11139;51.284;7.226;2024-03-25T03:46:14;5.90;99.90
21950;DHT22;11139;51.284;7.226;2024-03-25T03:48:39;5.90;99.90
21950;DHT22;11139;51.284;7.226;2024-03-25T03:51:06;6.00;99.90
21950;DHT22;11139;51.284;7.226;2024-03-25T03:53:32;6.00;99.90
21950;DHT22;11139;51.284;7.226;2024-03-25T03:56:00;6.00;99.90
21950;DHT22;11139;51.284;7.226;2024-03-25T03:58:33;5.90;99.90
21950;DHT22;11139;51.284;7.226;2024-03-25T04:00:59;5.90;99.90
21950;DHT22;11139;51.284;7.226;2024-03-25T04:03:25;5.90;99.90
21950;DHT22;11139;51.284;7.226;2024-03-25T04:05:51;5.90;99.90
21950;DHT22;11139;51.284;7.226;2024-03-25T04:08:16;5.90;99.90
21950;DHT22;11139;51.284;7.226;2024-03-25T04:10:44;5.90;99.90
21950;DHT22;11139;51.284;7.226;2024-03-25T04:13:10;5.90;99.90
21950;DHT22;11139;51.284;7.226;2024-03-25T04:15:37;5.90;99.90
21950;DHT22;11139;51.284;7.226;2024-03-25T04:18:03;5.90;99.90
21950;DHT22;11139;51.284;7.226;2024-03-25T04:20:29;5.90;99.90
21950;DHT22;11139;51.284;7.226;2024-03-25T04:22:56;5.90;99.90
21950;DHT22;11139;51.284;7.226;2024-03-25T04:25:22;5.90;99.90
21950;DHT22;11139;51.284;7.226;2024-03-25T04:27:48;5.90;99.90
21950;DHT22;11139;51.284;7.226;2024-03-25T04:30:14;5.90;99.90
21950;DHT22;11139;51.284;7.226;2024-03-25T04:32:40;5.90;99.90
21950;DHT22;11139;51.284;7.226;2024-03-25T04:35:07;5.90;99.90
21950;DHT22;11139;51.284;7.226;2024-03-25T04:37:33;5.90;99.90
21950;DHT22;11139;51.284;7.226;2024-03-25T04:39:59;5.90;99.90
21950;DHT22;11139;51.284;7.226;2024-03-25T04:42:25;5.90;99.90
21950;DHT22;11139;51.284;7.226;2024-03-25T04:44:51;5.90;99.90
21950;DHT22;11139;51.284;7.226;2024-03-25T04:47:17;5.90;99.90
21950;DHT22;11139;51.284;7.226;2024-03-25T04:49:43;5.90;99.90
21950;DHT22;11139;51.284;7.226;2024-03-25T04:52:10;5.90;99.90
21950;DHT22;11139;51.284;7.226;2024-03-25T04:54:36;5.90;99.90
21950;DHT22;11139;51.284;7.226;2024-03-25T04:57:02;5.80;99.90
21950;DHT22;11139;51.284;7.226;2024-03-25T04:59:28;5.90;99.90
21950;DHT22;11139;51.284;7.226;2024-03-25T05:01:53;5.90;99.90
21950;DHT22;11139;51.284;7.226;2024-03-25T05:04:19;5.90;99.90
21950;DHT22;11139;51.284;7.226;2024-03-25T05:06:45;5.90;99.90
21950;DHT22;11139;51.284;7.226;2024-03-25T05:09:11;5.90;99.90
21950;DHT22;11139;51.284;7.226;2024-03-25T05:11:37;5.90;99.90
21950;DHT22;11139;51.284;7.226;2024-03-25T05:14:02;5.90;99.90
21950;DHT22;11139;51.284;7.226;2024-03-25T05:16:28;5.90;99.90
21950;DHT22;11139;51.284;7.226;2024-03-25T05:18:53;5.90;99.90
21950;DHT22;11139;51.284;7.226;2024-03-25T05:21:19;5.90;99.90
21950;DHT22;11139;51.284;7.226;2024-03-25T05:23:44;5.90;99.90
21950;DHT22;11139;51.284;7.226;2024-03-25T05:26:10;5.90;99.90
21950;DHT22;11139;51.284;7.226;2024-03-25T05:28:36;5.80;99.90
21950;DHT22;11139;51.284;7.226;2024-03-25T05:31:08;5.90;99.90
21950;DHT22;11139;51.284;7.226;2024-03-25T05:33:34;5.90;99.90
21950;DHT22;11139;51.284;7.226;2024-03-25T05:36:01;5.90;99.90
21950;DHT22;11139;51.284;7.226;2024-03-25T05:38:30;5.90;99.90
21950;DHT22;11139;51.284;7.226;2024-03-25T05:40:56;5.80;99.90
21950;DHT22;11139;51.284;7.226;2024-03-25T05:43:22;5.90;99.90
21950;DHT22;11139;51.284;7.226;2024-03-25T05:45:54;5.80;99.90
21950;DHT22;11139;51.284;7.226;2024-03-25T05:48:20;5.80;99.90
21950;DHT22;11139;51.284;7.226;2024-03-25T05:50:46;5.80;99.90
21950;DHT22;11139;51.284;7.226;2024-03-25T05:53:21;5.80;99.90
21950;DHT22;11139;51.284;7.226;2024-03-25T05:55:48;5.80;99.90
21950;DHT22;11139;51.284;7.226;2024-03-25T05:58:13;5.80;99.90
21950;DHT22;11139;51.284;7.226;2024-03-25T06:00:39;5.80;99.90
21950;DHT22;11139;51.284;7.226;2024-03-25T06:03:05;5.80;99.90
21950;DHT22;11139;51.284;7.226;2024-03-25T06:05:30;5.80;99.90
21950;DHT22;11139;51.284;7.226;2024-03-25T06:07:56;5.80;99.90
21950;DHT22;11139;51.284;7.226;2024-03-25T06:10:21;5.80;99.90
21950;DHT22;11139;51.284;7.226;2024-03-25T06:12:47;5.80;99.90
21950;DHT22;11139;51.284;7.226;2024-03-25T06:15:13;5.80;99.90
21950;DHT22;11139;51.284;7.226;2024-03-25T06:17:39;5.80;99.90
21950;DHT22;11139;51.284;7.226;2024-03-25T06:20:05;5.80;99.90
21950;DHT22;11139;51.284;7.226;2024-03-25T06:22:31;5.80;99.90
21950;DHT22;11139;51.284;7.226;2024-03-25T06:24:56;5.80;99.90
21950;DHT22;11139;51.284;7.226;2024-03-25T06:27:22;5.80;99.90
21950;DHT22;11139;51.284;7.226;2024-03-25T06:29:47;5.80;99.90
21950;DHT22;11139;51.284;7.226;2024-03-25T06:32:13;5.80;99.90
21950;DHT22;11139;51.284;7.226;2024-03-25T06:34:57;5.80;99.90
21950;DHT22;11139;51.284;7.226;2024-03-25T06:37:26;5.80;99.90
21950;DHT22;11139;51.284;7.226;2024-03-25T06:39:51;5.80;99.90
21950;DHT22;11139;51.284;7.226;2024-03-25T06:42:18;5.80;99.90
21950;DHT22;11139;51.284;7.226;2024-03-25T06:44:44;5.80;99.90
21950;DHT22;11139;51.284;7.226;2024-03-25T06:47:14;5.80;99.90
21950;DHT22;11139;51.284;7.226;2024-03-25T06:49:40;5.80;99.90
21950;DHT22;11139;51.284;7.226;2024-03-25T06:52:06;5.80;99.90
21950;DHT22;11139;51.284;7.226;2024-03-25T06:54:31;5.80;99.90
21950;DHT22;11139;51.284;7.226;2024-03-25T06:56:57;5.80;99.90
21950;DHT22;11139;51.284;7.226;2024-03-25T06:59:22;5.80;99.90
21950;DHT22;11139;51.284;7.226;2024-03-25T07:01:48;5.80;99.90
21950;DHT22;11139;51.284;7.226;2024-03-25T07:04:14;5.80;99.90
21950;DHT22;11139;51.284;7.226;2024-03-25T07:06:39;5.80;99.90
21950;DHT22;11139;51.284;7.226;2024-03-25T07:09:06;5.80;99.90
21950;DHT22;11139;51.284;7.226;2024-03-25T07:11:31;5.80;99.90
21950;DHT22;11139;51.284;7.226;2024-03-25T07:13:57;5.80;99.90
21950;DHT22;11139;51.284;7.226;2024-03-25T07:16:22;5.80;99.90
21950;DHT22;11139;51.284;7.226;2024-03-25T07:18:48;5.80;99.90
21950;DHT22;11139;51.284;7.226;2024-03-25T07:21:13;5.90;99.90
21950;DHT22;11139;51.284;7.226;2024-03-25T07:23:39;5.90;99.90
21950;DHT22;11139;51.284;7.226;2024-03-25T07:26:04;5.90;99.90
21950;DHT22;11139;51.284;7.226;2024-03-25T07:28:30;5.90;99.90
21950;DHT22;11139;51.284;7.226;2024-03-25T07:30:55;5.90;99.90
21950;DHT22;11139;51.284;7.226;2024-03-25T07:33:21;5.90;99.90
21950;DHT22;11139;51.284;7.226;2024-03-25T07:35:47;5.90;99.90
21950;DHT22;11139;51.284;7.226;2024-03-25T07:38:12;5.90;99.90
21950;DHT22;11139;51.284;7.226;2024-03-25T07:40:38;5.90;99.90
21950;DHT22;11139;51.284;7.226;2024-03-25T07:43:04;5.90;99.90
21950;DHT22;11139;51.284;7.226;2024-03-25T07:45:30;5.90;99.90
21950;DHT22;11139;51.284;7.226;2024-03-25T07:47:56;5.90;99.90
21950;DHT22;11139;51.284;7.226;2024-03-25T07:50:22;5.90;99.90
21950;DHT22;11139;51.284;7.226;2024-03-25T07:52:47;6.00;99.90
21950;DHT22;11139;51.284;7.226;2024-03-25T07:55:13;6.00;99.90
21950;DHT22;11139;51.284;7.226;2024-03-25T07:57:40;6.00;99.90
21950;DHT22;11139;51.284;7.226;2024-03-25T08:00:06;6.00;99.90
21950;DHT22;11139;51.284;7.226;2024-03-25T08:02:34;6.00;99.90
21950;DHT22;11139;51.284;7.226;2024-03-25T08:04:59;6.00;99.90
21950;DHT22;11139;51.284;7.226;2024-03-25T08:07:25;6.00;99.90
21950;DHT22;11139;51.284;7.226;2024-03-25T08:09:50;5.90;99.90
21950;DHT22;11139;51.284;7.226;2024-03-25T08:12:16;6.00;99.90
21950;DHT22;11139;51.284;7.226;2024-03-25T08:14:42;5.90;99.90
21950;DHT22;11139;51.284;7.226;2024-03-25T08:17:09;5.90;99.90
21950;DHT22;11139;51.284;7.226;2024-03-25T08:19:34;5.90;99.90
21950;DHT22;11139;51.284;7.226;2024-03-25T08:22:00;6.00;99.90
21950;DHT22;11139;51.284;7.226;2024-03-25T08:24:25;6.00;99.90
21950;DHT22;11139;51.284;7.226;2024-03-25T08:26:51;6.00;99.90
21950;DHT22;11139;51.284;7.226;2024-03-25T08:29:16;6.00;99.90
21950;DHT22;11139;51.284;7.226;2024-03-25T08:31:42;6.00;99.90
21950;DHT22;11139;51.284;7.226;2024-03-25T08:34:08;6.00;99.90
21950;DHT22;11139;51.284;7.226;2024-03-25T08:36:34;6.00;99.90
21950;DHT22;11139;51.284;7.226;2024-03-25T08:38:59;6.00;99.90
21950;DHT22;11139;51.284;7.226;2024-03-25T08:41:25;6.00;99.90
21950;DHT22;11139;51.284;7.226;2024-03-25T08:43:50;6.00;99.90
21950;DHT22;11139;51.284;7.226;2024-03-25T08:46:16;6.00;99.90
21950;DHT22;11139;51.284;7.226;2024-03-25T08:48:41;6.00;99.90
21950;DHT22;11139;51.284;7.226;2024-03-25T08:51:07;6.00;99.90
21950;DHT22;11139;51.284;7.226;2024-03-25T08:53:33;6.00;99.90
21950;DHT22;11139;51.284;7.226;2024-03-25T08:55:59;6.00;99.90
21950;DHT22;11139;51.284;7.226;2024-03-25T08:58:25;6.00;99.90
21950;DHT22;11139;51.284;7.226;2024-03-25T09:00:50;6.00;99.90
21950;DHT22;11139;51.284;7.226;2024-03-25T09:03:16;6.00;99.90
21950;DHT22;11139;51.284;7.226;2024-03-25T09:05:42;6.10;99.90
21950;DHT22;11139;51.284;7.226;2024-03-25T09:08:07;6.10;99.90
21950;DHT22;11139;51.284;7.226;2024-03-25T09:10:36;6.10;99.90
21950;DHT22;11139;51.284;7.226;2024-03-25T09:13:20;6.10;99.90
21950;DHT22;11139;51.284;7.226;2024-03-25T09:15:46;6.10;99.90
21950;DHT22;11139;51.284;7.226;2024-03-25T09:18:11;6.10;99.90
21950;DHT22;11139;51.284;7.226;2024-03-25T09:20:37;6.10;99.90
21950;DHT22;11139;51.284;7.226;2024-03-25T09:23:03;6.10;99.90
21950;DHT22;11139;51.284;7.226;2024-03-25T09:25:28;6.10;99.90
21950;DHT22;11139;51.284;7.226;2024-03-25T09:27:54;6.10;99.90
21950;DHT22;11139;51.284;7.226;2024-03-25T09:30:19;6.10;99.90
21950;DHT22;11139;51.284;7.226;2024-03-25T09:32:45;6.10;99.90
21950;DHT22;11139;51.284;7.226;2024-03-25T09:35:11;6.20;99.90
21950;DHT22;11139;51.284;7.226;2024-03-25T09:37:37;6.20;99.90
21950;DHT22;11139;51.284;7.226;2024-03-25T09:40:04;6.20;99.90
21950;DHT22;11139;51.284;7.226;2024-03-25T09:42:42;6.20;99.90
21950;DHT22;11139;51.284;7.226;2024-03-25T09:45:08;6.20;99.90
21950;DHT22;11139;51.284;7.226;2024-03-25T09:47:35;6.20;99.90
21950;DHT22;11139;51.284;7.226;2024-03-25T09:50:04;6.20;99.90
21950;DHT22;11139;51.284;7.226;2024-03-25T09:52:31;6.20;99.90
21950;DHT22;11139;51.284;7.226;2024-03-25T09:54:57;6.10;99.90
21950;DHT22;11139;51.284;7.226;2024-03-25T09:57:22;6.20;99.90
21950;DHT22;11139;51.284;7.226;2024-03-25T09:59:49;6.20;99.90
21950;DHT22;11139;51.284;7.226;2024-03-25T10:02:14;6.20;99.90
21950;DHT22;11139;51.284;7.226;2024-03-25T10:04:46;6.20;99.90
21950;DHT22;11139;51.284;7.226;2024-03-25T10:07:22;6.20;99.90
21950;DHT22;11139;51.284;7.226;2024-03-25T10:09:49;6.20;99.90
21950;DHT22;11139;51.284;7.226;2024-03-25T10:12:15;6.20;99.90
21950;DHT22;11139;51.284;7.226;2024-03-25T10:14:40;6.20;99.90
21950;DHT22;11139;51.284;7.226;2024-03-25T10:17:06;6.20;99.90
21950;DHT22;11139;51.284;7.226;2024-03-25T10:19:33;6.20;99.90
21950;DHT22;11139;51.284;7.226;2024-03-25T10:22:07;6.20;99.90
21950;DHT22;11139;51.284;7.226;2024-03-25T10:24:44;6.20;99.90
21950;DHT22;11139;51.284;7.226;2024-03-25T10:27:31;6.20;99.90
21950;DHT22;11139;51.284;7.226;2024-03-25T10:29:56;6.20;99.90
21950;DHT22;11139;51.284;7.226;2024-03-25T10:32:22;6.30;99.90
21950;DHT22;11139;51.284;7.226;2024-03-25T10:34:50;6.30;99.90
21950;DHT22;11139;51.284;7.226;2024-03-25T10:37:17;6.30;99.90
21950;DHT22;11139;51.284;7.226;2024-03-25T10:39:49;6.30;99.90
21950;DHT22;11139;51.284;7.226;2024-03-25T10:42:19;6.30;99.90
21950;DHT22;11139;51.284;7.226;2024-03-25T10:44:45;6.30;99.90
21950;DHT22;11139;51.284;7.226;2024-03-25T10:47:21;6.40;99.90
21950;DHT22;11139;51.284;7.226;2024-03-25T10:49:56;6.40;99.90
21950;DHT22;11139;51.284;7.226;2024-03-25T10:52:22;6.40;99.90
21950;DHT22;11139;51.284;7.226;2024-03-25T10:54:49;6.40;99.90
21950;DHT22;11139;51.284;7.226;2024-03-25T10:57:16;6.40;99.90
21950;DHT22;11139;51.284;7.226;2024-03-25T10:59:45;6.50;99.90
21950;DHT22;11139;51.284;7.226;2024-03-25T11:02:11;6.50;99.90
21950;DHT22;11139;51.284;7.226;2024-03-25T11:04:38;6.50;99.90
21950;DHT22;11139;51.284;7.226;2024-03-25T11:07:11;6.50;99.90
21950;DHT22;11139;51.284;7.226;2024-03-25T11:09:37;6.50;99.90
21950;DHT22;11139;51.284;7.226;2024-03-25T11:12:03;6.50;99.90
21950;DHT22;11139;51.284;7.226;2024-03-25T11:14:29;6.50;99.90
21950;DHT22;11139;51.284;7.226;2024-03-25T11:16:58;6.50;99.90
21950;DHT22;11139;51.284;7.226;2024-03-25T11:19:31;6.50;99.90
21950;DHT22;11139;51.284;7.226;2024-03-25T11:22:08;6.50;99.90
21950;DHT22;11139;51.284;7.226;2024-03-25T11:24:35;6.50;99.90
21950;DHT22;11139;51.284;7.226;2024-03-25T11:27:07;6.50;99.90
21950;DHT22;11139;51.284;7.226;2024-03-25T11:29:33;6.50;99.90
21950;DHT22;11139;51.284;7.226;2024-03-25T11:32:05;6.50;99.90
21950;DHT22;11139;51.284;7.226;2024-03-25T11:34:31;6.60;99.90
21950;DHT22;11139;51.284;7.226;2024-03-25T11:36:57;6.60;99.90
21950;DHT22;11139;51.284;7.226;2024-03-25T11:39:23;6.60;99.90
21950;DHT22;11139;51.284;7.226;2024-03-25T11:41:49;6.60;99.90
21950;DHT22;11139;51.284;7.226;2024-03-25T11:44:16;6.60;99.90
21950;DHT22;11139;51.284;7.226;2024-03-25T11:46:43;6.60;99.90
21950;DHT22;11139;51.284;7.226;2024-03-25T11:49:14;6.60;99.90
21950;DHT22;11139;51.284;7.226;2024-03-25T11:51:40;6.60;99.90
21950;DHT22;11139;51.284;7.226;2024-03-25T11:54:09;6.60;99.90
21950;DHT22;11139;51.284;7.226;2024-03-25T11:56:36;6.70;99.90
21950;DHT22;11139;51.284;7.226;2024-03-25T11:59:03;6.70;99.90
21950;DHT22;11139;51.284;7.226;2024-03-25T12:01:29;6.70;99.90
21950;DHT22;11139;51.284;7.226;2024-03-25T12:03:55;6.70;99.90
21950;DHT22;11139;51.284;7.226;2024-03-25T12:06:21;6.70;99.90
21950;DHT22;11139;51.284;7.226;2024-03-25T12:08:46;6.70;99.90
21950;DHT22;11139;51.284;7.226;2024-03-25T12:11:31;6.70;99.90
21950;DHT22;11139;51.284;7.226;2024-03-25T12:13:57;6.70;99.90
21950;DHT22;11139;51.284;7.226;2024-03-25T12:16:24;6.70;99.90
21950;DHT22;11139;51.284;7.226;2024-03-25T12:18:49;6.80;99.90
21950;DHT22;11139;51.284;7.226;2024-03-25T12:21:17;6.90;99.90
21950;DHT22;11139;51.284;7.226;2024-03-25T12:23:43;6.90;99.90
21950;DHT22;11139;51.284;7.226;2024-03-25T12:26:08;6.90;99.90
21950;DHT22;11139;51.284;7.226;2024-03-25T12:28:35;6.90;99.90
21950;DHT22;11139;51.284;7.226;2024-03-25T12:31:02;6.90;99.90
21950;DHT22;11139;51.284;7.226;2024-03-25T12:33:28;6.90;99.90
21950;DHT22;11139;51.284;7.226;2024-03-25T12:35:54;6.90;99.90
21950;DHT22;11139;51.284;7.226;2024-03-25T12:38:26;6.90;99.90
21950;DHT22;11139;51.284;7.226;2024-03-25T12:41:03;6.90;99.90
21950;DHT22;11139;51.284;7.226;2024-03-25T12:43:32;6.90;99.90
21950;DHT22;11139;51.284;7.226;2024-03-25T12:45:58;6.90;99.90
21950;DHT22;11139;51.284;7.226;2024-03-25T12:48:24;6.90;99.90
21950;DHT22;11139;51.284;7.226;2024-03-25T12:50:50;6.90;99.90
21950;DHT22;11139;51.284;7.226;2024-03-25T12:53:18;7.00;99.90
21950;DHT22;11139;51.284;7.226;2024-03-25T12:55:47;7.00;99.90
21950;DHT22;11139;51.284;7.226;2024-03-25T12:58:13;7.00;99.90
21950;DHT22;11139;51.284;7.226;2024-03-25T13:00:39;7.00;99.90
21950;DHT22;11139;51.284;7.226;2024-03-25T13:03:06;7.00;99.90
21950;DHT22;11139;51.284;7.226;2024-03-25T13:05:34;7.10;99.90
21950;DHT22;11139;51.284;7.226;2024-03-25T13:08:01;7.10;99.90
21950;DHT22;11139;51.284;7.226;2024-03-25T13:10:28;7.10;99.90
21950;DHT22;11139;51.284;7.226;2024-03-25T13:12:55;7.10;99.90
21950;DHT22;11139;51.284;7.226;2024-03-25T13:15:20;7.10;99.90
21950;DHT22;11139;51.284;7.226;2024-03-25T13:17:46;7.20;99.90
21950;DHT22;11139;51.284;7.226;2024-03-25T13:20:12;7.20;99.90
21950;DHT22;11139;51.284;7.226;2024-03-25T13:22:39;7.20;99.90
21950;DHT22;11139;51.284;7.226;2024-03-25T13:25:05;7.20;99.90
21950;DHT22;11139;51.284;7.226;2024-03-25T13:27:31;7.20;99.90
21950;DHT22;11139;51.284;7.226;2024-03-25T13:29:57;7.20;99.90
21950;DHT22;11139;51.284;7.226;2024-03-25T13:32:23;7.20;99.90
21950;DHT22;11139;51.284;7.226;2024-03-25T13:34:49;7.20;99.90
21950;DHT22;11139;51.284;7.226;2024-03-25T13:37:15;7.20;99.90
21950;DHT22;11139;51.284;7.226;2024-03-25T13:39:41;7.30;99.90
21950;DHT22;11139;51.284;7.226;2024-03-25T13:42:06;7.30;99.90
21950;DHT22;11139;51.284;7.226;2024-03-25T13:44:32;7.30;99.90
21950;DHT22;11139;51.284;7.226;2024-03-25T13:46:57;7.30;99.90
21950;DHT22;11139;51.284;7.226;2024-03-25T13:49:23;7.30;99.90
21950;DHT22;11139;51.284;7.226;2024-03-25T13:51:58;7.40;99.90
21950;DHT22;11139;51.284;7.226;2024-03-25T13:54:26;7.30;99.90
21950;DHT22;11139;51.284;7.226;2024-03-25T13:56:51;7.40;99.90
21950;DHT22;11139;51.284;7.226;2024-03-25T13:59:17;7.40;99.90
21950;DHT22;11139;51.284;7.226;2024-03-25T14:01:42;7.40;99.90
21950;DHT22;11139;51.284;7.226;2024-03-25T14:04:08;7.40;99.90
21950;DHT22;11139;51.284;7.226;2024-03-25T14:06:34;7.40;99.90
21950;DHT22;11139;51.284;7.226;2024-03-25T14:09:02;7.50;99.90
21950;DHT22;11139;51.284;7.226;2024-03-25T14:11:30;7.50;99.90
21950;DHT22;11139;51.284;7.226;2024-03-25T14:13:55;7.60;99.90
21950;DHT22;11139;51.284;7.226;2024-03-25T14:16:21;7.60;99.90
21950;DHT22;11139;51.284;7.226;2024-03-25T14:18:47;7.60;99.90
21950;DHT22;11139;51.284;7.226;2024-03-25T14:21:13;7.60;99.90
21950;DHT22;11139;51.284;7.226;2024-03-25T14:23:38;7.60;99.90
21950;DHT22;11139;51.284;7.226;2024-03-25T14:26:14;7.60;99.90
21950;DHT22;11139;51.284;7.226;2024-03-25T14:28:43;7.60;99.90
21950;DHT22;11139;51.284;7.226;2024-03-25T14:31:08;7.60;99.90
21950;DHT22;11139;51.284;7.226;2024-03-25T14:33:34;7.60;99.90
21950;DHT22;11139;51.284;7.226;2024-03-25T14:36:00;7.70;99.90
21950;DHT22;11139;51.284;7.226;2024-03-25T14:38:25;7.70;99.90
21950;DHT22;11139;51.284;7.226;2024-03-25T14:40:51;7.70;99.90
21950;DHT22;11139;51.284;7.226;2024-03-25T14:43:18;7.60;99.90
21950;DHT22;11139;51.284;7.226;2024-03-25T14:45:45;7.60;99.90
21950;DHT22;11139;51.284;7.226;2024-03-25T14:48:11;7.60;99.90
21950;DHT22;11139;51.284;7.226;2024-03-25T14:50:36;7.60;99.90
21950;DHT22;11139;51.284;7.226;2024-03-25T14:53:03;7.70;99.90
21950;DHT22;11139;51.284;7.226;2024-03-25T14:55:29;7.70;99.90
21950;DHT22;11139;51.284;7.226;2024-03-25T14:57:55;7.70;99.90
21950;DHT22;11139;51.284;7.226;2024-03-25T15:00:21;7.70;99.90
21950;DHT22;11139;51.284;7.226;2024-03-25T15:02:47;7.80;99.90
21950;DHT22;11139;51.284;7.226;2024-03-25T15:05:12;7.80;99.90
21950;DHT22;11139;51.284;7.226;2024-03-25T15:07:38;7.80;99.90
21950;DHT22;11139;51.284;7.226;2024-03-25T15:10:04;7.80;99.90
21950;DHT22;11139;51.284;7.226;2024-03-25T15:12:30;7.80;99.90
21950;DHT22;11139;51.284;7.226;2024-03-25T15:14:56;7.80;99.90
21950;DHT22;11139;51.284;7.226;2024-03-25T15:17:21;7.80;99.90
21950;DHT22;11139;51.284;7.226;2024-03-25T15:19:47;7.80;99.90
21950;DHT22;11139;51.284;7.226;2024-03-25T15:22:12;7.90;99.90
21950;DHT22;11139;51.284;7.226;2024-03-25T15:24:38;7.80;99.90
21950;DHT22;11139;51.284;7.226;2024-03-25T15:27:04;7.80;99.90
21950;DHT22;11139;51.284;7.226;2024-03-25T15:29:30;7.90;99.90
21950;DHT22;11139;51.284;7.226;2024-03-25T15:31:56;7.90;99.90
21950;DHT22;11139;51.284;7.226;2024-03-25T15:34:21;7.90;99.90
21950;DHT22;11139;51.284;7.226;2024-03-25T15:36:47;7.90;99.90
21950;DHT22;11139;51.284;7.226;2024-03-25T15:39:15;7.90;99.90
21950;DHT22;11139;51.284;7.226;2024-03-25T15:41:40;7.90;99.90